Terminal Aerodrome Forecast
Issued by NWS

Home | Current Version | Previous Version | Text Only | Print | Product List | Glossary On
Versions: 1 2 3 4 5 6 7 8 9 10 11 12 13 14 15 16 17 18 19 20 21 22 23 24 25 26 27 28 29 30 31 32 33 34 35 36 37 38 39
000
FTAK31 PANC 231740
TAFAVD
TAF
PAVD 231740Z 2318/2418 VRB03KT P6SM VCFG SCT015 SCT025 SCT250
     FM232200 24008KT P6SM BKN080
     FM240500 VRB03KT P6SM BKN040
     FM240800 VRB03KT 5SM -RA BR OVC035
      AMD LTD TO CLD VIS AND WIND=

USA.gov is the U.S. government's official web portal to all federal, state and local government web resources and services.